createdAt,value
2022-08-18T00:01:10.399Z,100447.53
2022-08-18T00:03:55.753Z,100441.75
2022-08-18T00:06:28.475Z,100438.84
2022-08-18T00:08:57.987Z,100431.59
2022-08-18T00:11:26.083Z,100427.06
2022-08-18T00:13:53.876Z,100436.00
2022-08-18T00:16:23.122Z,100439.91
2022-08-18T00:18:51.003Z,100448.63
2022-08-18T00:21:19.107Z,100433.31
2022-08-18T00:23:46.991Z,100434.13
2022-08-18T00:26:14.781Z,100434.94
2022-08-18T00:28:42.643Z,100432.47
2022-08-18T00:31:10.464Z,100419.03
2022-08-18T00:33:39.611Z,100421.72
2022-08-18T00:36:07.418Z,100424.59
2022-08-18T00:38:35.190Z,100414.66
2022-08-18T00:41:03.150Z,100413.03
2022-08-18T00:43:36.538Z,100413.84
2022-08-18T00:46:08.178Z,100423.78
2022-08-18T00:48:36.146Z,100417.19
2022-08-18T00:51:11.345Z,100419.66
2022-08-18T00:53:45.735Z,100413.47
2022-08-18T00:56:17.695Z,100410.56
2022-08-18T00:58:50.482Z,100406.00
2022-08-18T01:01:23.222Z,100410.97
2022-08-18T01:03:55.167Z,100403.13
2022-08-18T01:06:32.354Z,100406.00
2022-08-18T01:09:01.771Z,100407.06
2022-08-18T01:11:30.176Z,100417.81
2022-08-18T01:13:59.134Z,100408.09
2022-08-18T01:16:56.658Z,100413.88
2022-08-18T01:19:44.417Z,100419.25
2022-08-18T01:22:19.247Z,100417.38
2022-08-18T01:25:11.543Z,100422.97
2022-08-18T01:27:41.864Z,100418.84
2022-08-18T01:30:18.179Z,100434.97
2022-08-18T01:32:46.882Z,100434.78
2022-08-18T01:35:18.197Z,100428.38
2022-08-18T01:37:46.076Z,100438.50
2022-08-18T01:41:21.759Z,100441.38
2022-08-18T01:43:05.708Z,100442.00
2022-08-18T01:45:34.489Z,100443.88
2022-08-18T01:48:04.471Z,100445.09
2022-08-18T01:50:35.128Z,100449.06
2022-08-18T01:53:05.456Z,100449.88
2022-08-18T01:55:35.115Z,100451.97
2022-08-18T01:58:03.405Z,100459.41
2022-08-18T02:00:32.216Z,100453.59
2022-08-18T02:03:02.893Z,100451.13
2022-08-18T02:05:34.659Z,100439.56
2022-08-18T02:08:03.583Z,100440.59
2022-08-18T02:10:32.068Z,100440.59
2022-08-18T02:13:01.126Z,100440.97
2022-08-18T02:15:29.071Z,100440.38
2022-08-18T02:17:56.867Z,100439.56
2022-08-18T02:20:25.313Z,100445.34
2022-08-18T02:22:53.658Z,100442.66
2022-08-18T02:25:21.539Z,100437.06
2022-08-18T02:27:49.373Z,100437.06
2022-08-18T02:30:20.015Z,100426.72
2022-08-18T02:32:48.418Z,100431.47
2022-08-18T02:35:16.245Z,100430.88
2022-08-18T02:37:47.763Z,100435.00
2022-08-18T02:40:16.513Z,100431.91
2022-08-18T02:42:44.987Z,100425.91
2022-08-18T02:45:13.756Z,100423.84
2022-08-18T02:47:44.271Z,100422.97
2022-08-18T02:50:12.918Z,100427.97
2022-08-18T02:52:41.296Z,100429.38
2022-08-18T02:55:10.937Z,100417.63
2022-08-18T02:57:43.477Z,100419.03
2022-08-18T03:00:15.053Z,100415.53
2022-08-18T03:02:48.653Z,100421.72
2022-08-18T03:05:16.908Z,100425.88
2022-08-18T03:07:45.438Z,100428.56
2022-08-18T03:10:31.373Z,100416.38
2022-08-18T03:13:01.880Z,100425.03
2022-08-18T03:15:29.695Z,100413.47
2022-08-18T03:17:59.404Z,100416.78
2022-08-18T03:20:30.321Z,100418.66
2022-08-18T03:22:59.262Z,100424.22
2022-08-18T03:25:27.123Z,100430.22
2022-08-18T03:27:54.935Z,100425.88
2022-08-18T03:30:23.619Z,100420.94
2022-08-18T03:32:52.158Z,100430.25
2022-08-18T03:35:21.350Z,100426.31
2022-08-18T03:37:49.135Z,100427.34
2022-08-18T03:43:23.762Z,100420.53
2022-08-18T03:46:03.404Z,100427.34
2022-08-18T03:48:33.098Z,100428.78
2022-08-18T03:51:09.440Z,100437.28
2022-08-18T03:53:41.515Z,100442.44
2022-08-18T03:56:17.602Z,100440.13
2022-08-18T03:58:47.585Z,100450.09
2022-08-18T04:01:26.259Z,100445.97
2022-08-18T04:03:57.002Z,100445.53
2022-08-18T04:06:30.336Z,100451.13
2022-08-18T04:09:01.316Z,100442.84
2022-08-18T04:11:29.619Z,100442.03
2022-08-18T04:14:03.918Z,100448.22
2022-08-18T04:16:33.160Z,100445.94
2022-08-18T04:19:03.536Z,100448.66
2022-08-18T04:21:34.678Z,100440.59
2022-08-18T04:24:09.864Z,100443.28
2022-08-18T04:26:50.154Z,100428.38
2022-08-18T04:29:21.173Z,100439.31
2022-08-18T04:31:50.042Z,100447.81
2022-08-18T04:34:18.553Z,100451.75
2022-08-18T04:36:47.871Z,100461.25
2022-08-18T04:39:15.659Z,100457.91
2022-08-18T04:41:44.875Z,100464.75
2022-08-18T04:44:14.808Z,100467.25
2022-08-18T04:46:46.212Z,100467.88
2022-08-18T04:49:14.400Z,100462.28
2022-08-18T04:52:26.949Z,100475.94
2022-08-18T04:54:38.351Z,100468.03
2022-08-18T04:57:11.278Z,100471.75
2022-08-18T04:59:41.336Z,100465.38
2022-08-18T05:02:14.206Z,100465.16
2022-08-18T05:04:47.206Z,100476.13
2022-08-18T05:07:18.783Z,100474.03
2022-08-18T05:09:48.244Z,100476.09
2022-08-18T05:12:17.134Z,100476.72
2022-08-18T05:14:46.375Z,100484.16
2022-08-18T05:17:16.294Z,100481.22
2022-08-18T05:19:45.751Z,100480.03
2022-08-18T05:22:18.347Z,100483.97
2022-08-18T05:24:48.543Z,100480.44
2022-08-18T05:27:16.443Z,100473.59
2022-08-18T05:29:46.138Z,100482.06
2022-08-18T05:32:30.275Z,100479.97
2022-08-18T05:35:06.140Z,100476.66
2022-08-18T05:37:43.906Z,100478.94
2022-08-18T05:40:15.997Z,100483.31
2022-08-18T05:42:44.733Z,100492.22
2022-08-18T05:45:16.568Z,100495.53
2022-08-18T05:47:44.710Z,100487.47
2022-08-18T05:50:16.396Z,100486.19
2022-08-18T05:52:52.346Z,100494.94
2022-08-18T05:55:47.969Z,100496.16
2022-08-18T05:58:34.724Z,100500.28
2022-08-18T06:01:05.778Z,100496.78
2022-08-18T06:03:45.162Z,100503.41
2022-08-18T06:06:18.260Z,100501.34
2022-08-18T06:08:51.360Z,100506.53
2022-08-18T06:11:22.775Z,100506.72
2022-08-18T06:13:54.214Z,100501.56
2022-08-18T06:16:39.924Z,100511.69
2022-08-18T06:19:25.576Z,100517.28
2022-08-18T06:22:03.703Z,100518.31
2022-08-18T06:24:39.057Z,100520.38
2022-08-18T06:27:17.672Z,100516.25
2022-08-18T06:29:55.870Z,100521.41
2022-08-18T06:32:36.800Z,100534.06
2022-08-18T06:35:18.111Z,100525.16
2022-08-18T06:38:16.620Z,100529.94
2022-08-18T06:40:44.455Z,100518.94
2022-08-18T06:43:17.060Z,100540.25
2022-08-18T06:45:52.030Z,100535.69
2022-08-18T06:48:28.311Z,100543.38
2022-08-18T06:51:00.574Z,100547.91
2022-08-18T06:53:53.552Z,100541.72
2022-08-18T06:56:26.625Z,100536.34
2022-08-18T06:58:56.475Z,100545.44
2022-08-18T07:01:25.838Z,100538.00
2022-08-18T07:03:58.188Z,100538.41
2022-08-18T07:06:31.357Z,100539.22
2022-08-18T07:09:24.047Z,100535.47
2022-08-18T07:12:07.479Z,100536.72
2022-08-18T07:14:46.841Z,100529.69
2022-08-18T07:17:22.211Z,100537.13
2022-08-18T07:20:20.208Z,100533.22
2022-08-18T07:22:57.518Z,100530.53
2022-08-18T07:25:30.406Z,100529.91
2022-08-18T07:28:01.472Z,100519.78
2022-08-18T07:30:34.511Z,100511.50
2022-08-18T07:33:12.106Z,100508.81
2022-08-18T07:35:45.722Z,100511.31
2022-08-18T07:38:41.637Z,100506.75
2022-08-18T07:41:15.572Z,100512.56
2022-08-18T07:43:53.392Z,100521.44
2022-08-18T07:46:28.116Z,100528.88
2022-08-18T07:48:58.689Z,100522.06
2022-08-18T07:51:37.561Z,100540.47
2022-08-18T07:54:31.069Z,100535.91
2022-08-18T07:57:07.079Z,100538.38
2022-08-18T07:59:44.760Z,100544.59
2022-08-18T08:02:29.991Z,100546.66
2022-08-18T08:05:07.209Z,100543.97
2022-08-18T08:07:43.885Z,100546.06
2022-08-18T08:10:32.492Z,100544.63
2022-08-18T08:13:12.683Z,100538.81
2022-08-18T08:15:50.365Z,100547.50
2022-08-18T08:18:26.347Z,100543.56
2022-08-18T08:20:58.370Z,100549.56
2022-08-18T08:23:31.933Z,100548.53
2022-08-18T08:26:23.360Z,100556.19
2022-08-18T08:29:02.538Z,100560.34
2022-08-18T08:31:39.162Z,100558.50
2022-08-18T08:34:15.815Z,100560.75
2022-08-18T08:36:46.436Z,100557.00
2022-08-18T08:39:22.385Z,100563.25
2022-08-18T08:42:29.697Z,100518.94
2022-08-18T08:44:59.168Z,100558.28
2022-08-18T08:47:33.341Z,100567.81
2022-08-18T08:50:05.315Z,100569.47
2022-08-18T08:52:42.213Z,100575.25
2022-08-18T08:55:16.288Z,100580.44
2022-08-18T08:57:49.708Z,100582.94
2022-08-18T09:00:17.889Z,100580.88
2022-08-18T09:03:00.081Z,100582.94
2022-08-18T09:05:35.977Z,100577.16
2022-08-18T09:08:32.720Z,100579.00
2022-08-18T09:11:18.985Z,100570.09
2022-08-18T09:14:14.530Z,100564.53
2022-08-18T09:16:53.984Z,100559.16
2022-08-18T09:19:40.628Z,100566.78
2022-08-18T09:22:20.940Z,100559.09
2022-08-18T09:24:51.581Z,100561.38
2022-08-18T09:27:48.673Z,100562.59
2022-08-18T09:30:42.420Z,100554.97
2022-08-18T09:33:22.909Z,100566.13
2022-08-18T09:36:10.529Z,100561.75
2022-08-18T09:39:08.653Z,100560.28
2022-08-18T09:44:57.492Z,100564.88
2022-08-18T09:48:03.591Z,100567.72
2022-08-18T09:50:55.200Z,100553.44
2022-08-18T09:53:54.347Z,100565.28
2022-08-18T09:57:19.523Z,100559.44
2022-08-18T10:00:12.876Z,100571.06
2022-08-18T10:03:31.416Z,100578.06
2022-08-18T10:09:36.517Z,100584.13
2022-08-18T10:12:43.636Z,100556.34
2022-08-18T10:15:39.430Z,100565.84
2022-08-18T10:18:42.809Z,100562.44
2022-08-18T10:21:21.055Z,100543.00
2022-08-18T10:24:14.826Z,100531.78
2022-08-18T10:27:10.876Z,100555.25
2022-08-18T10:29:53.329Z,100542.88
2022-08-18T10:32:54.307Z,100556.59
2022-08-18T10:35:53.343Z,100554.53
2022-08-18T10:38:30.761Z,100550.81
2022-08-18T10:41:09.851Z,100527.03
2022-08-18T10:43:46.187Z,100539.22
2022-08-18T10:46:29.423Z,100542.31
2022-08-18T10:49:04.476Z,100535.84
2022-08-18T10:51:59.340Z,100537.59
2022-08-18T10:54:51.092Z,100519.66
2022-08-18T10:57:32.807Z,100540.16
2022-08-18T11:00:09.704Z,100514.47
2022-08-18T11:03:30.125Z,100522.66
2022-08-18T11:06:03.734Z,100522.03
2022-08-18T11:08:36.907Z,100520.47
2022-08-18T11:11:34.594Z,100524.78
2022-08-18T11:14:26.976Z,100524.78
2022-08-18T11:17:04.150Z,100528.69
2022-08-18T11:19:42.077Z,100529.75
2022-08-18T11:22:31.077Z,100530.50
2022-08-18T11:25:01.306Z,100514.75
2022-08-18T11:27:35.271Z,100528.72
2022-08-18T11:30:06.191Z,100508.59
2022-08-18T11:32:51.869Z,100511.13
2022-08-18T11:35:25.102Z,100503.94
2022-08-18T11:37:58.306Z,100505.44
2022-08-18T11:46:29.635Z,100501.53
2022-08-18T11:49:02.149Z,100502.81
2022-08-18T11:51:34.521Z,100499.06
2022-08-18T11:54:23.204Z,100501.94
2022-08-18T11:56:51.428Z,100495.81
2022-08-18T12:02:23.816Z,100493.88
2022-08-18T12:04:55.052Z,100488.31
2022-08-18T12:07:29.838Z,100490.72
2022-08-18T12:10:19.408Z,100491.03
2022-08-18T12:12:53.666Z,100500.78
2022-08-18T12:15:43.885Z,100480.31
2022-08-18T12:18:25.937Z,100502.03
2022-08-18T12:20:58.313Z,100523.84
2022-08-18T12:23:26.649Z,100529.69
2022-08-18T12:25:54.745Z,100499.59
2022-08-18T12:28:22.834Z,100521.69
2022-08-18T12:30:57.505Z,100545.38
2022-08-18T12:33:47.814Z,100546.81
2022-08-18T12:36:19.034Z,100561.53
2022-08-18T12:38:52.303Z,100569.03
2022-08-18T12:41:24.616Z,100545.69
2022-08-18T12:43:58.419Z,100549.94
2022-08-18T12:46:27.848Z,100541.97
2022-08-18T12:49:00.727Z,100532.38
2022-08-18T12:51:31.790Z,100529.94
2022-08-18T12:54:02.910Z,100518.34
2022-08-18T12:56:32.714Z,100483.59
2022-08-18T12:59:06.876Z,100492.78
2022-08-18T13:01:37.667Z,100499.34
2022-08-18T13:04:12.124Z,100505.09
2022-08-18T13:06:59.194Z,100502.66
2022-08-18T13:09:47.984Z,100486.38
2022-08-18T13:12:19.234Z,100496.63
2022-08-18T13:14:49.741Z,100498.09
2022-08-18T13:17:32.639Z,100483.69
2022-08-18T13:20:07.778Z,100470.75
2022-08-18T13:22:40.316Z,100466.81
2022-08-18T13:25:11.003Z,100470.19
2022-08-18T13:30:30.904Z,100462.13
2022-08-18T13:33:05.464Z,100450.97
2022-08-18T13:35:44.589Z,100463.22
2022-08-18T13:38:20.667Z,100461.06
2022-08-18T13:40:50.683Z,100473.47
2022-08-18T13:43:23.547Z,100479.97
2022-08-18T13:45:53.271Z,100472.63
2022-08-18T13:48:25.497Z,100467.81
2022-08-18T13:50:56.015Z,100467.69
2022-08-18T13:53:27.618Z,100464.75
2022-08-18T13:55:57.940Z,100473.00
2022-08-18T13:58:27.267Z,100458.50
2022-08-18T14:01:22.877Z,100472.97
2022-08-18T14:03:48.105Z,100462.06
2022-08-18T14:06:21.956Z,100469.56
2022-08-18T14:08:52.968Z,100463.09
2022-08-18T14:11:23.720Z,100478.88
2022-08-18T14:13:54.114Z,100490.00
2022-08-18T14:16:23.215Z,100495.50
2022-08-18T14:19:12.591Z,100487.75
2022-08-18T14:22:02.987Z,100466.28
2022-08-18T14:24:50.767Z,100484.00
2022-08-18T14:27:19.786Z,100476.94
2022-08-18T14:29:49.753Z,100467.06
2022-08-18T14:32:29.045Z,100467.31
2022-08-18T14:35:00.526Z,100470.50
2022-08-18T14:37:29.272Z,100472.03
2022-08-18T14:39:59.314Z,100477.91
2022-08-18T14:42:40.917Z,100476.25
2022-08-18T14:45:26.566Z,100477.44
2022-08-18T14:47:59.352Z,100475.34
2022-08-18T14:50:27.807Z,100467.22
2022-08-18T14:52:55.652Z,100468.88
2022-08-18T14:55:25.029Z,100447.09
2022-08-18T14:57:54.845Z,100453.31
2022-08-18T15:00:28.056Z,100458.13
2022-08-18T15:02:57.406Z,100458.03
2022-08-18T15:05:32.136Z,100460.13
2022-08-18T15:08:04.787Z,100458.41
2022-08-18T15:10:34.497Z,100457.47
2022-08-18T15:13:03.831Z,100440.97
2022-08-18T15:15:42.227Z,100458.16
2022-08-18T15:18:23.263Z,100459.69
2022-08-18T15:21:10.204Z,100465.94
2022-08-18T15:23:58.292Z,100460.75
2022-08-18T15:26:27.802Z,100433.44
2022-08-18T15:29:00.218Z,100463.66
2022-08-18T15:34:20.604Z,100452.38
2022-08-18T15:36:49.411Z,100449.91
2022-08-18T15:39:17.991Z,100453.22
2022-08-18T15:41:49.317Z,100455.31
2022-08-18T15:44:19.630Z,100436.00
2022-08-18T15:46:53.066Z,100437.44
2022-08-18T15:49:21.906Z,100433.66
2022-08-18T15:51:56.960Z,100439.44
2022-08-18T15:54:25.334Z,100448.03
2022-08-18T15:56:58.138Z,100442.25
2022-08-18T15:59:26.905Z,100448.03
2022-08-18T16:02:02.384Z,100448.63
2022-08-18T16:04:30.300Z,100415.78
2022-08-18T16:06:59.583Z,100442.75
2022-08-18T16:09:27.412Z,100420.25
2022-08-18T16:12:00.271Z,100440.94
2022-08-18T16:14:28.339Z,100438.47
2022-08-18T16:16:56.260Z,100411.19
2022-08-18T16:19:25.609Z,100436.13
2022-08-18T16:21:56.553Z,100437.44
2022-08-18T16:24:24.556Z,100434.38
2022-08-18T16:26:52.445Z,100432.47
2022-08-18T16:29:24.038Z,100427.44
2022-08-18T16:31:52.399Z,100428.84
2022-08-18T16:34:22.711Z,100440.97
2022-08-18T16:36:50.574Z,100368.91
2022-08-18T16:39:19.594Z,100434.84
2022-08-18T16:41:49.947Z,100431.78
2022-08-18T16:44:17.667Z,100428.72
2022-08-18T16:46:46.852Z,100434.25
2022-08-18T16:49:14.825Z,100410.34
2022-08-18T16:51:45.308Z,100425.66
2022-08-18T16:54:14.490Z,100424.00
2022-08-18T16:56:42.235Z,100422.34
2022-08-18T16:59:27.790Z,100414.69
2022-08-18T17:02:14.591Z,100417.88
2022-08-18T17:04:42.448Z,100412.09
2022-08-18T17:07:10.247Z,100410.09
2022-08-18T17:09:38.014Z,100412.66
2022-08-18T17:12:06.227Z,100406.66
2022-08-18T17:14:34.142Z,100409.25
2022-08-18T17:17:03.518Z,100414.28
2022-08-18T17:19:34.250Z,100408.50
2022-08-18T17:22:03.374Z,100402.50
2022-08-18T17:24:32.532Z,100404.00
2022-08-18T17:27:26.105Z,100404.72
2022-08-18T17:30:01.732Z,100408.13
2022-08-18T17:35:15.159Z,100401.97
2022-08-18T17:37:52.173Z,100406.22
2022-08-18T17:40:28.594Z,100406.66
2022-08-18T17:42:57.249Z,100386.94
2022-08-18T17:45:25.335Z,100398.03
2022-08-18T17:48:01.209Z,100372.31
2022-08-18T17:50:52.103Z,100396.63
2022-08-18T17:53:21.386Z,100373.97
2022-08-18T17:55:55.100Z,100393.75
2022-08-18T17:58:30.664Z,100387.75
2022-08-18T18:00:58.464Z,100395.47
2022-08-18T18:03:28.348Z,100390.56
2022-08-18T18:06:03.708Z,100392.88
2022-08-18T18:08:52.987Z,100392.88
2022-08-18T18:11:31.268Z,100380.44
2022-08-18T18:14:00.441Z,100386.28
2022-08-18T18:16:34.902Z,100359.06
2022-08-18T18:19:07.320Z,100382.38
2022-08-18T18:22:00.703Z,100378.25
2022-08-18T18:24:32.112Z,100366.34
2022-08-18T18:27:00.137Z,100384.38
2022-08-18T18:29:35.626Z,100382.09
2022-08-18T18:32:07.682Z,100391.72
2022-08-18T18:34:40.140Z,100384.06
2022-08-18T18:37:26.254Z,100391.59
2022-08-18T18:39:59.598Z,100392.03
2022-08-18T18:42:29.491Z,100394.72
2022-08-18T18:44:59.562Z,100394.34
2022-08-18T18:47:44.326Z,100398.09
2022-08-18T18:50:21.883Z,100395.84
2022-08-18T18:53:00.193Z,100400.28
2022-08-18T18:55:32.045Z,100403.06
2022-08-18T18:58:12.150Z,100357.06
2022-08-18T19:00:53.627Z,100407.28
2022-08-18T19:03:27.283Z,100404.00
2022-08-18T19:06:13.099Z,100404.59
2022-08-18T19:08:50.513Z,100400.06
2022-08-18T19:11:25.822Z,100408.63
2022-08-18T19:14:00.641Z,100400.38
2022-08-18T19:16:34.668Z,100392.56
2022-08-18T19:19:36.327Z,100397.97
2022-08-18T19:22:06.438Z,100399.22
2022-08-18T19:24:40.248Z,100412.06
2022-08-18T19:27:15.996Z,100405.53
2022-08-18T19:29:47.400Z,100406.50
2022-08-18T19:32:19.775Z,100412.94
2022-08-18T19:34:51.489Z,100407.53
2022-08-18T19:37:31.253Z,100394.78
2022-08-18T19:40:09.244Z,100408.75
2022-08-18T19:42:42.815Z,100414.00
2022-08-18T19:45:23.382Z,100411.31
2022-08-18T19:47:57.810Z,100382.25
2022-08-18T19:50:32.479Z,100410.09
2022-08-18T19:53:20.446Z,100403.03
2022-08-18T19:56:12.363Z,100411.88
2022-08-18T19:59:15.544Z,100412.50
2022-08-18T20:01:58.500Z,100409.47
2022-08-18T20:04:43.623Z,100424.53
2022-08-18T20:07:31.372Z,100413.22
2022-08-18T20:10:15.579Z,100425.38
2022-08-18T20:13:01.002Z,100429.94
2022-08-18T20:15:31.078Z,100422.31
2022-08-18T20:18:06.422Z,100419.66
2022-08-18T20:20:38.098Z,100419.22
2022-08-18T20:23:31.166Z,100419.22
2022-08-18T20:26:00.621Z,100422.34
2022-08-18T20:28:46.125Z,100422.03
2022-08-18T20:31:17.444Z,100427.25
2022-08-18T20:33:54.141Z,100427.91
2022-08-18T20:36:29.436Z,100417.81
2022-08-18T20:38:59.106Z,100423.56
2022-08-18T20:41:47.180Z,100429.78
2022-08-18T20:44:52.053Z,100425.91
2022-08-18T20:47:42.599Z,100432.47
2022-08-18T20:50:36.631Z,100433.53
2022-08-18T20:53:13.075Z,100438.34
2022-08-18T20:55:49.222Z,100423.63
2022-08-18T20:58:27.674Z,100418.47
2022-08-18T21:00:58.205Z,100425.69
2022-08-18T21:03:36.632Z,100418.63
2022-08-18T21:06:05.461Z,100426.94
2022-08-18T21:08:35.768Z,100433.81
2022-08-18T21:11:09.180Z,100427.25
2022-08-18T21:13:51.483Z,100436.59
2022-08-18T21:16:37.959Z,100375.72
2022-08-18T21:19:13.787Z,100427.56
2022-08-18T21:21:46.775Z,100429.84
2022-08-18T21:24:28.152Z,100428.19
2022-08-18T21:26:58.583Z,100424.53
2022-08-18T21:29:34.489Z,100419.34
2022-08-18T21:32:19.432Z,100421.84
2022-08-18T21:34:50.979Z,100417.94
2022-08-18T21:37:20.224Z,100407.59
2022-08-18T21:39:51.090Z,100419.44
2022-08-18T21:42:22.255Z,100423.97
2022-08-18T21:44:54.286Z,100427.72
2022-08-18T21:47:26.130Z,100432.88
2022-08-18T21:50:08.277Z,100428.97
2022-08-18T21:52:38.522Z,100431.88
2022-08-18T21:55:14.787Z,100429.59
2022-08-18T21:57:52.725Z,100429.59
2022-08-18T22:00:26.914Z,100433.31
2022-08-18T22:03:12.536Z,100427.94
2022-08-18T22:05:58.683Z,100439.53
2022-08-18T22:08:29.736Z,100420.69
2022-08-18T22:11:59.911Z,100439.72
2022-08-18T22:14:53.502Z,100435.78
2022-08-18T22:17:31.530Z,100440.38
2022-08-18T22:20:38.684Z,100440.81
2022-08-18T22:23:43.832Z,100437.06
2022-08-18T22:26:18.890Z,100440.00
2022-08-18T22:28:59.729Z,100445.56
2022-08-18T22:31:30.877Z,100440.16
2022-08-18T22:34:07.233Z,100447.22
2022-08-18T22:36:37.443Z,100435.59
2022-08-18T22:39:08.682Z,100443.50
2022-08-18T22:41:36.756Z,100456.75
2022-08-18T22:44:05.506Z,100459.25
2022-08-18T22:46:33.696Z,100447.88
2022-08-18T22:49:03.386Z,100450.19
2022-08-18T22:51:32.932Z,100449.16
2022-08-18T22:54:00.845Z,100458.25
2022-08-18T22:56:34.428Z,100452.50
2022-08-18T22:59:12.150Z,100460.97
2022-08-18T23:01:45.464Z,100461.41
2022-08-18T23:04:16.300Z,100459.97
2022-08-18T23:06:51.128Z,100472.19
2022-08-18T23:09:25.111Z,100468.47
2022-08-18T23:11:54.622Z,100474.28
2022-08-18T23:14:23.062Z,100467.88
2022-08-18T23:16:51.137Z,100469.72
2022-08-18T23:19:22.177Z,100477.19
2022-08-18T23:21:51.618Z,100479.25
2022-08-18T23:24:21.194Z,100446.97
2022-08-18T23:26:49.240Z,100479.69
2022-08-18T23:29:17.224Z,100491.28
2022-08-18T23:31:46.006Z,100486.09
2022-08-18T23:34:17.225Z,100471.81
2022-08-18T23:36:52.413Z,100478.03
2022-08-18T23:39:20.216Z,100474.50
2022-08-18T23:41:48.130Z,100481.75
2022-08-18T23:44:16.718Z,100481.75
2022-08-18T23:46:44.835Z,100458.75
2022-08-18T23:49:14.796Z,100470.78
2022-08-18T23:51:46.074Z,100456.06
2022-08-18T23:54:17.718Z,100471.81
2022-08-18T23:56:47.611Z,100473.03
2022-08-18T23:59:17.302Z,100461.88
